sensor_id;sensor_type;location;lat;lon;timestamp;pressure;altitude;pressure_sealevel;temperature;humidity
23635;BME280;11994;51.038;16.974;2022-09-09T00:04:54;99761.75;;;17.40;87.85
23635;BME280;11994;51.038;16.974;2022-09-09T00:10:28;99763.48;;;17.32;87.64
23635;BME280;11994;51.038;16.974;2022-09-09T00:21:12;99762.11;;;17.18;88.04
23635;BME280;11994;51.038;16.974;2022-09-09T00:23:50;99762.00;;;17.20;87.90
23635;BME280;11994;51.038;16.974;2022-09-09T00:26:36;99767.88;;;17.18;87.73
23635;BME280;11994;51.038;16.974;2022-09-09T00:29:10;99767.66;;;17.14;87.70
23635;BME280;11994;51.038;16.974;2022-09-09T00:31:35;99774.28;;;17.14;87.81
23635;BME280;11994;51.038;16.974;2022-09-09T00:34:20;99767.77;;;17.12;87.74
23635;BME280;11994;51.038;16.974;2022-09-09T00:36:50;99766.30;;;17.07;87.70
23635;BME280;11994;51.038;16.974;2022-09-09T00:39:39;99766.38;;;17.05;87.80
23635;BME280;11994;51.038;16.974;2022-09-09T00:42:25;99761.95;;;17.06;87.84
23635;BME280;11994;51.038;16.974;2022-09-09T00:47:56;99763.70;;;16.98;87.90
23635;BME280;11994;51.038;16.974;2022-09-09T00:56:22;99770.89;;;16.96;87.48
23635;BME280;11994;51.038;16.974;2022-09-09T00:59:03;99765.75;;;16.93;87.66
23635;BME280;11994;51.038;16.974;2022-09-09T01:01:27;99768.97;;;16.91;87.64
23635;BME280;11994;51.038;16.974;2022-09-09T01:03:54;99762.56;;;16.95;87.90
23635;BME280;11994;51.038;16.974;2022-09-09T01:06:32;99770.97;;;16.95;87.56
23635;BME280;11994;51.038;16.974;2022-09-09T01:09:26;99771.63;;;16.91;87.43
23635;BME280;11994;51.038;16.974;2022-09-09T01:14:46;99768.37;;;16.86;87.50
23635;BME280;11994;51.038;16.974;2022-09-09T01:26:18;99776.28;;;16.79;87.40
23635;BME280;11994;51.038;16.974;2022-09-09T01:28:51;99778.66;;;16.68;87.04
23635;BME280;11994;51.038;16.974;2022-09-09T01:31:27;99780.09;;;16.58;86.92
23635;BME280;11994;51.038;16.974;2022-09-09T01:33:58;99778.68;;;16.44;87.04
23635;BME280;11994;51.038;16.974;2022-09-09T01:36:38;99785.19;;;16.37;87.39
23635;BME280;11994;51.038;16.974;2022-09-09T01:39:11;99789.05;;;16.40;87.37
23635;BME280;11994;51.038;16.974;2022-09-09T01:41:38;99790.81;;;16.31;87.18
23635;BME280;11994;51.038;16.974;2022-09-09T01:44:04;99784.52;;;16.25;87.18
23635;BME280;11994;51.038;16.974;2022-09-09T01:46:30;99788.18;;;16.23;87.55
23635;BME280;11994;51.038;16.974;2022-09-09T01:48:57;99786.08;;;16.29;87.96
23635;BME280;11994;51.038;16.974;2022-09-09T01:51:25;99794.25;;;16.33;88.06
23635;BME280;11994;51.038;16.974;2022-09-09T01:53:50;99789.97;;;16.31;87.59
23635;BME280;11994;51.038;16.974;2022-09-09T02:02:07;99798.14;;;16.26;88.04
23635;BME280;11994;51.038;16.974;2022-09-09T02:04:51;99792.84;;;16.26;87.86
23635;BME280;11994;51.038;16.974;2022-09-09T02:07:34;99798.95;;;16.20;87.84
23635;BME280;11994;51.038;16.974;2022-09-09T02:10:21;99794.59;;;16.19;87.90
23635;BME280;11994;51.038;16.974;2022-09-09T02:13:07;99801.98;;;16.21;88.08
23635;BME280;11994;51.038;16.974;2022-09-09T02:15:33;99799.33;;;16.21;88.17
23635;BME280;11994;51.038;16.974;2022-09-09T02:18:04;99802.22;;;16.25;88.26
23635;BME280;11994;51.038;16.974;2022-09-09T02:20:34;99805.63;;;16.27;88.22
23635;BME280;11994;51.038;16.974;2022-09-09T02:23:04;99797.55;;;16.21;87.92
23635;BME280;11994;51.038;16.974;2022-09-09T02:25:32;99803.76;;;16.20;88.11
23635;BME280;11994;51.038;16.974;2022-09-09T02:28:00;99800.58;;;16.22;88.16
23635;BME280;11994;51.038;16.974;2022-09-09T02:30:29;99797.63;;;16.20;87.84
23635;BME280;11994;51.038;16.974;2022-09-09T02:32:59;99799.73;;;16.13;87.76
23635;BME280;11994;51.038;16.974;2022-09-09T02:35:28;99813.28;;;16.07;87.85
23635;BME280;11994;51.038;16.974;2022-09-09T02:37:59;99811.89;;;16.00;87.80
23635;BME280;11994;51.038;16.974;2022-09-09T02:40:26;99812.14;;;15.96;88.01
23635;BME280;11994;51.038;16.974;2022-09-09T02:42:54;99806.85;;;15.96;88.21
23635;BME280;11994;51.038;16.974;2022-09-09T02:45:23;99816.11;;;15.96;88.28
23635;BME280;11994;51.038;16.974;2022-09-09T02:50:54;99819.20;;;16.04;88.69
23635;BME280;11994;51.038;16.974;2022-09-09T02:53:49;99818.95;;;16.08;88.62
23635;BME280;11994;51.038;16.974;2022-09-09T02:56:21;99818.13;;;16.08;88.34
23635;BME280;11994;51.038;16.974;2022-09-09T02:58:50;99812.59;;;16.04;88.29
23635;BME280;11994;51.038;16.974;2022-09-09T03:01:17;99819.66;;;16.03;88.14
23635;BME280;11994;51.038;16.974;2022-09-09T03:03:43;99824.44;;;15.97;88.05
23635;BME280;11994;51.038;16.974;2022-09-09T03:06:10;99822.87;;;15.93;88.28
23635;BME280;11994;51.038;16.974;2022-09-09T03:08:37;99819.59;;;15.96;88.70
23635;BME280;11994;51.038;16.974;2022-09-09T03:11:04;99827.01;;;15.98;88.47
23635;BME280;11994;51.038;16.974;2022-09-09T03:13:30;99831.99;;;15.96;88.12
23635;BME280;11994;51.038;16.974;2022-09-09T03:15:55;99838.30;;;15.93;88.19
23635;BME280;11994;51.038;16.974;2022-09-09T03:18:21;99840.24;;;15.90;88.09
23635;BME280;11994;51.038;16.974;2022-09-09T03:20:48;99838.98;;;15.88;88.32
23635;BME280;11994;51.038;16.974;2022-09-09T03:23:14;99829.87;;;15.85;88.25
23635;BME280;11994;51.038;16.974;2022-09-09T03:25:52;99834.95;;;15.81;88.16
23635;BME280;11994;51.038;16.974;2022-09-09T03:28:17;99830.73;;;15.77;88.18
23635;BME280;11994;51.038;16.974;2022-09-09T03:30:43;99837.80;;;15.77;88.22
23635;BME280;11994;51.038;16.974;2022-09-09T03:33:09;99838.29;;;15.76;88.31
23635;BME280;11994;51.038;16.974;2022-09-09T03:35:35;99837.73;;;15.78;88.37
23635;BME280;11994;51.038;16.974;2022-09-09T03:38:01;99839.13;;;15.77;88.29
23635;BME280;11994;51.038;16.974;2022-09-09T03:40:27;99841.87;;;15.75;88.15
23635;BME280;11994;51.038;16.974;2022-09-09T03:42:53;99840.62;;;15.74;88.15
23635;BME280;11994;51.038;16.974;2022-09-09T03:45:19;99845.91;;;15.74;88.03
23635;BME280;11994;51.038;16.974;2022-09-09T03:47:45;99849.31;;;15.67;87.72
23635;BME280;11994;51.038;16.974;2022-09-09T03:50:11;99845.27;;;15.60;87.95
23635;BME280;11994;51.038;16.974;2022-09-09T03:52:38;99841.53;;;15.56;88.00
23635;BME280;11994;51.038;16.974;2022-09-09T03:55:06;99844.88;;;15.51;87.84
23635;BME280;11994;51.038;16.974;2022-09-09T03:57:33;99848.72;;;15.44;88.05
23635;BME280;11994;51.038;16.974;2022-09-09T04:00:03;99847.33;;;15.45;88.12
23635;BME280;11994;51.038;16.974;2022-09-09T04:02:31;99849.98;;;15.45;88.37
23635;BME280;11994;51.038;16.974;2022-09-09T04:04:57;99847.97;;;15.50;88.65
23635;BME280;11994;51.038;16.974;2022-09-09T04:07:23;99853.12;;;15.53;88.42
23635;BME280;11994;51.038;16.974;2022-09-09T04:09:49;99855.90;;;15.50;88.28
23635;BME280;11994;51.038;16.974;2022-09-09T04:12:14;99860.33;;;15.41;87.94
23635;BME280;11994;51.038;16.974;2022-09-09T04:14:41;99859.83;;;15.33;87.97
23635;BME280;11994;51.038;16.974;2022-09-09T04:17:07;99859.64;;;15.28;88.31
23635;BME280;11994;51.038;16.974;2022-09-09T04:19:33;99859.70;;;15.26;88.54
23635;BME280;11994;51.038;16.974;2022-09-09T04:21:59;99862.09;;;15.22;88.10
23635;BME280;11994;51.038;16.974;2022-09-09T04:24:24;99872.95;;;15.16;88.29
23635;BME280;11994;51.038;16.974;2022-09-09T04:26:52;99859.35;;;15.15;88.60
23635;BME280;11994;51.038;16.974;2022-09-09T04:29:18;99860.55;;;15.18;88.65
23635;BME280;11994;51.038;16.974;2022-09-09T04:31:44;99860.55;;;15.18;88.96
23635;BME280;11994;51.038;16.974;2022-09-09T04:34:10;99865.67;;;15.21;88.88
23635;BME280;11994;51.038;16.974;2022-09-09T04:36:36;99870.50;;;15.22;88.85
23635;BME280;11994;51.038;16.974;2022-09-09T04:39:02;99867.16;;;15.18;88.69
23635;BME280;11994;51.038;16.974;2022-09-09T04:41:28;99868.86;;;15.19;89.07
23635;BME280;11994;51.038;16.974;2022-09-09T04:43:55;99870.73;;;15.26;89.36
23635;BME280;11994;51.038;16.974;2022-09-09T04:46:22;99867.89;;;15.30;89.36
23635;BME280;11994;51.038;16.974;2022-09-09T04:48:49;99873.43;;;15.34;89.41
23635;BME280;11994;51.038;16.974;2022-09-09T04:51:15;99867.33;;;15.42;89.74
23635;BME280;11994;51.038;16.974;2022-09-09T04:53:42;99871.83;;;15.49;89.45
23635;BME280;11994;51.038;16.974;2022-09-09T04:56:11;99869.29;;;15.47;89.07
23635;BME280;11994;51.038;16.974;2022-09-09T04:58:39;99875.16;;;15.44;89.02
23635;BME280;11994;51.038;16.974;2022-09-09T05:01:10;99872.62;;;15.42;89.09
23635;BME280;11994;51.038;16.974;2022-09-09T05:03:38;99875.71;;;15.42;89.12
23635;BME280;11994;51.038;16.974;2022-09-09T05:06:06;99883.41;;;15.46;89.32
23635;BME280;11994;51.038;16.974;2022-09-09T05:08:38;99874.96;;;15.48;89.37
23635;BME280;11994;51.038;16.974;2022-09-09T05:11:25;99882.59;;;15.54;89.75
23635;BME280;11994;51.038;16.974;2022-09-09T05:13:53;99884.55;;;15.59;89.52
23635;BME280;11994;51.038;16.974;2022-09-09T05:16:20;99891.78;;;15.56;89.21
23635;BME280;11994;51.038;16.974;2022-09-09T05:18:48;99891.85;;;15.54;89.36
23635;BME280;11994;51.038;16.974;2022-09-09T05:21:17;99891.06;;;15.61;89.67
23635;BME280;11994;51.038;16.974;2022-09-09T05:23:45;99887.67;;;15.67;90.02
23635;BME280;11994;51.038;16.974;2022-09-09T05:26:14;99890.88;;;15.74;89.95
23635;BME280;11994;51.038;16.974;2022-09-09T05:28:41;99892.59;;;15.75;89.83
23635;BME280;11994;51.038;16.974;2022-09-09T05:31:09;99890.33;;;15.76;89.87
23635;BME280;11994;51.038;16.974;2022-09-09T05:33:38;99892.73;;;15.80;89.94
23635;BME280;11994;51.038;16.974;2022-09-09T05:36:17;99889.08;;;15.83;89.98
23635;BME280;11994;51.038;16.974;2022-09-09T05:38:44;99894.37;;;15.83;89.81
23635;BME280;11994;51.038;16.974;2022-09-09T05:41:11;99897.89;;;15.83;90.12
23635;BME280;11994;51.038;16.974;2022-09-09T05:43:40;99902.95;;;15.88;90.08
23635;BME280;11994;51.038;16.974;2022-09-09T05:46:12;99897.83;;;15.93;90.14
23635;BME280;11994;51.038;16.974;2022-09-09T05:48:42;99894.50;;;15.98;90.39
23635;BME280;11994;51.038;16.974;2022-09-09T05:51:14;99890.21;;;16.04;90.64
23635;BME280;11994;51.038;16.974;2022-09-09T05:53:43;99884.05;;;16.12;90.95
23635;BME280;11994;51.038;16.974;2022-09-09T05:56:18;99881.47;;;16.19;90.79
23635;BME280;11994;51.038;16.974;2022-09-09T05:58:51;99884.36;;;16.23;90.73
23635;BME280;11994;51.038;16.974;2022-09-09T06:01:27;99892.44;;;16.29;90.81
23635;BME280;11994;51.038;16.974;2022-09-09T06:03:51;99897.34;;;16.36;91.45
23635;BME280;11994;51.038;16.974;2022-09-09T06:06:23;99892.00;;;16.46;91.49
23635;BME280;11994;51.038;16.974;2022-09-09T06:08:56;99888.16;;;16.52;91.49
23635;BME280;11994;51.038;16.974;2022-09-09T06:11:26;99889.78;;;16.63;91.59
23635;BME280;11994;51.038;16.974;2022-09-09T06:13:53;99884.08;;;16.70;91.53
23635;BME280;11994;51.038;16.974;2022-09-09T06:16:22;99882.05;;;16.75;91.64
23635;BME280;11994;51.038;16.974;2022-09-09T06:18:51;99881.72;;;16.81;91.51
23635;BME280;11994;51.038;16.974;2022-09-09T06:21:20;99889.72;;;16.88;91.74
23635;BME280;11994;51.038;16.974;2022-09-09T06:23:48;99885.71;;;16.97;91.74
23635;BME280;11994;51.038;16.974;2022-09-09T06:26:22;99884.05;;;17.03;91.63
23635;BME280;11994;51.038;16.974;2022-09-09T06:28:52;99888.63;;;17.08;91.79
23635;BME280;11994;51.038;16.974;2022-09-09T06:31:21;99889.16;;;17.14;92.05
23635;BME280;11994;51.038;16.974;2022-09-09T06:33:50;99890.45;;;17.23;92.21
23635;BME280;11994;51.038;16.974;2022-09-09T06:36:19;99884.24;;;17.31;92.01
23635;BME280;11994;51.038;16.974;2022-09-09T06:38:47;99890.03;;;17.39;92.15
23635;BME280;11994;51.038;16.974;2022-09-09T06:41:16;99899.50;;;17.43;91.96
23635;BME280;11994;51.038;16.974;2022-09-09T06:43:44;99897.15;;;17.45;92.10
23635;BME280;11994;51.038;16.974;2022-09-09T06:46:16;99896.48;;;17.57;92.89
23635;BME280;11994;51.038;16.974;2022-09-09T06:48:45;99898.22;;;17.65;92.64
23635;BME280;11994;51.038;16.974;2022-09-09T06:51:14;99891.45;;;17.75;92.73
23635;BME280;11994;51.038;16.974;2022-09-09T06:53:45;99903.64;;;17.86;92.68
23635;BME280;11994;51.038;16.974;2022-09-09T06:58:50;99906.71;;;18.01;92.33
23635;BME280;11994;51.038;16.974;2022-09-09T07:01:23;99898.22;;;18.10;92.30
23635;BME280;11994;51.038;16.974;2022-09-09T07:03:55;99895.78;;;18.14;91.98
23635;BME280;11994;51.038;16.974;2022-09-09T07:06:31;99901.57;;;18.28;92.17
23635;BME280;11994;51.038;16.974;2022-09-09T07:08:57;99901.48;;;18.29;91.79
23635;BME280;11994;51.038;16.974;2022-09-09T07:11:27;99898.24;;;18.40;91.95
23635;BME280;11994;51.038;16.974;2022-09-09T07:13:54;99892.16;;;18.45;91.33
23635;BME280;11994;51.038;16.974;2022-09-09T07:16:22;99901.36;;;18.46;91.40
23635;BME280;11994;51.038;16.974;2022-09-09T07:18:50;99903.95;;;18.62;92.00
23635;BME280;11994;51.038;16.974;2022-09-09T07:21:17;99903.11;;;18.75;91.60
23635;BME280;11994;51.038;16.974;2022-09-09T07:23:44;99902.18;;;18.83;91.36
23635;BME280;11994;51.038;16.974;2022-09-09T07:26:17;99898.55;;;18.98;91.56
23635;BME280;11994;51.038;16.974;2022-09-09T07:28:41;99897.22;;;18.98;90.57
23635;BME280;11994;51.038;16.974;2022-09-09T07:31:13;99897.59;;;18.99;90.31
23635;BME280;11994;51.038;16.974;2022-09-09T07:33:43;99891.52;;;19.04;90.49
23635;BME280;11994;51.038;16.974;2022-09-09T07:36:15;99897.31;;;19.11;89.42
23635;BME280;11994;51.038;16.974;2022-09-09T07:38:45;99902.72;;;19.09;88.59
23635;BME280;11994;51.038;16.974;2022-09-09T07:41:18;99905.30;;;19.11;88.58
23635;BME280;11994;51.038;16.974;2022-09-09T07:43:47;99915.48;;;19.25;89.18
23635;BME280;11994;51.038;16.974;2022-09-09T07:46:16;99913.23;;;19.53;88.92
23635;BME280;11994;51.038;16.974;2022-09-09T07:48:47;99917.64;;;19.73;88.44
23635;BME280;11994;51.038;16.974;2022-09-09T07:51:24;99919.68;;;19.96;88.12
23635;BME280;11994;51.038;16.974;2022-09-09T07:53:54;99920.32;;;20.07;87.75
23635;BME280;11994;51.038;16.974;2022-09-09T07:56:26;99922.12;;;20.06;87.52
23635;BME280;11994;51.038;16.974;2022-09-09T07:58:54;99918.11;;;20.13;87.46
23635;BME280;11994;51.038;16.974;2022-09-09T08:01:28;99917.34;;;20.31;87.52
23635;BME280;11994;51.038;16.974;2022-09-09T08:04:00;99916.58;;;20.48;87.03
23635;BME280;11994;51.038;16.974;2022-09-09T08:06:31;99919.94;;;20.57;85.65
23635;BME280;11994;51.038;16.974;2022-09-09T08:08:59;99917.02;;;20.67;85.65
23635;BME280;11994;51.038;16.974;2022-09-09T08:11:27;99917.33;;;20.75;84.79
23635;BME280;11994;51.038;16.974;2022-09-09T08:13:55;99912.66;;;20.79;84.70
23635;BME280;11994;51.038;16.974;2022-09-09T08:16:24;99909.23;;;20.77;84.71
23635;BME280;11994;51.038;16.974;2022-09-09T08:18:55;99914.00;;;20.79;84.61
23635;BME280;11994;51.038;16.974;2022-09-09T08:21:26;99914.13;;;20.83;83.49
23635;BME280;11994;51.038;16.974;2022-09-09T08:23:55;99908.50;;;20.87;83.79
23635;BME280;11994;51.038;16.974;2022-09-09T08:26:24;99911.70;;;20.92;83.50
23635;BME280;11994;51.038;16.974;2022-09-09T08:28:55;99913.53;;;20.92;83.04
23635;BME280;11994;51.038;16.974;2022-09-09T08:31:25;99906.23;;;20.81;82.81
23635;BME280;11994;51.038;16.974;2022-09-09T08:33:57;99905.33;;;20.75;83.12
23635;BME280;11994;51.038;16.974;2022-09-09T08:36:26;99900.59;;;20.73;82.65
23635;BME280;11994;51.038;16.974;2022-09-09T08:38:56;99905.59;;;20.78;82.75
23635;BME280;11994;51.038;16.974;2022-09-09T08:41:39;99905.06;;;20.85;82.68
23635;BME280;11994;51.038;16.974;2022-09-09T08:49:48;99896.49;;;20.87;80.94
23635;BME280;11994;51.038;16.974;2022-09-09T09:00:51;99923.88;;;20.96;79.07
23635;BME280;11994;51.038;16.974;2022-09-09T09:03:56;99926.75;;;21.06;78.61
23635;BME280;11994;51.038;16.974;2022-09-09T09:11:56;99936.70;;;21.34;77.08
23635;BME280;11994;51.038;16.974;2022-09-09T09:14:25;99937.98;;;21.47;77.20
23635;BME280;11994;51.038;16.974;2022-09-09T09:19:30;99927.37;;;21.52;76.66
23635;BME280;11994;51.038;16.974;2022-09-09T09:24:55;99928.41;;;21.44;76.27
23635;BME280;11994;51.038;16.974;2022-09-09T09:27:40;99907.70;;;21.35;76.19
23635;BME280;11994;51.038;16.974;2022-09-09T09:30:20;99935.82;;;21.46;76.06
23635;BME280;11994;51.038;16.974;2022-09-09T09:32:54;99910.39;;;21.23;74.60
23635;BME280;11994;51.038;16.974;2022-09-09T09:35:22;99910.39;;;21.23;74.60
23635;BME280;11994;51.038;16.974;2022-09-09T09:37:49;99914.72;;;21.31;75.79
23635;BME280;11994;51.038;16.974;2022-09-09T09:40:18;99910.64;;;21.38;75.47
23635;BME280;11994;51.038;16.974;2022-09-09T09:42:54;99936.92;;;21.49;75.13
23635;BME280;11994;51.038;16.974;2022-09-09T09:45:34;99932.63;;;21.41;74.10
23635;BME280;11994;51.038;16.974;2022-09-09T09:48:05;99933.95;;;21.41;73.79
23635;BME280;11994;51.038;16.974;2022-09-09T09:50:33;99932.00;;;21.68;73.24
23635;BME280;11994;51.038;16.974;2022-09-09T09:53:04;99907.36;;;21.70;72.00
23635;BME280;11994;51.038;16.974;2022-09-09T09:55:33;99907.36;;;21.70;72.00
23635;BME280;11994;51.038;16.974;2022-09-09T09:58:13;99939.95;;;21.99;71.57
23635;BME280;11994;51.038;16.974;2022-09-09T10:00:47;99946.81;;;22.14;71.52
23635;BME280;11994;51.038;16.974;2022-09-09T10:03:30;99939.76;;;22.07;71.56
23635;BME280;11994;51.038;16.974;2022-09-09T10:05:57;99930.88;;;22.07;71.39
23635;BME280;11994;51.038;16.974;2022-09-09T10:08:25;99937.59;;;22.12;71.06
23635;BME280;11994;51.038;16.974;2022-09-09T10:19:35;99926.92;;;22.23;70.16
23635;BME280;11994;51.038;16.974;2022-09-09T10:22:19;99936.48;;;22.15;70.50
23635;BME280;11994;51.038;16.974;2022-09-09T10:33:57;99930.10;;;21.99;68.71
23635;BME280;11994;51.038;16.974;2022-09-09T10:36:24;99927.47;;;22.05;68.30
23635;BME280;11994;51.038;16.974;2022-09-09T10:52:39;99922.44;;;22.24;67.79
23635;BME280;11994;51.038;16.974;2022-09-09T10:55:17;99915.35;;;22.17;67.13
23635;BME280;11994;51.038;16.974;2022-09-09T10:57:53;99914.02;;;22.17;66.83
23635;BME280;11994;51.038;16.974;2022-09-09T11:00:23;99919.09;;;22.38;67.79
23635;BME280;11994;51.038;16.974;2022-09-09T11:03:22;99917.84;;;22.60;66.21
23635;BME280;11994;51.038;16.974;2022-09-09T11:05:57;99918.85;;;22.70;66.18
23635;BME280;11994;51.038;16.974;2022-09-09T11:08:29;99916.40;;;22.67;66.25
23635;BME280;11994;51.038;16.974;2022-09-09T11:11:11;99912.91;;;22.78;66.63
23635;BME280;11994;51.038;16.974;2022-09-09T11:13:57;99913.27;;;22.84;66.87
23635;BME280;11994;51.038;16.974;2022-09-09T11:16:45;99919.75;;;22.98;66.47
23635;BME280;11994;51.038;16.974;2022-09-09T11:22:04;99924.24;;;23.09;64.98
23635;BME280;11994;51.038;16.974;2022-09-09T11:24:40;99926.45;;;23.09;63.13
23635;BME280;11994;51.038;16.974;2022-09-09T11:27:13;99925.46;;;22.99;62.20
23635;BME280;11994;51.038;16.974;2022-09-09T11:30:05;99917.80;;;22.95;63.54
23635;BME280;11994;51.038;16.974;2022-09-09T11:42:07;99909.42;;;23.43;63.94
23635;BME280;11994;51.038;16.974;2022-09-09T11:44:40;99914.38;;;23.53;63.11
23635;BME280;11994;51.038;16.974;2022-09-09T11:47:25;99912.31;;;23.62;62.80
23635;BME280;11994;51.038;16.974;2022-09-09T11:52:48;99911.35;;;23.58;59.35
23635;BME280;11994;51.038;16.974;2022-09-09T11:55:32;99908.80;;;23.45;61.73
23635;BME280;11994;51.038;16.974;2022-09-09T11:58:14;99918.41;;;23.42;62.07
23635;BME280;11994;51.038;16.974;2022-09-09T12:00:41;99907.21;;;23.37;61.08
23635;BME280;11994;51.038;16.974;2022-09-09T12:06:28;99906.14;;;23.23;60.19
23635;BME280;11994;51.038;16.974;2022-09-09T12:09:07;99909.44;;;23.21;61.36
23635;BME280;11994;51.038;16.974;2022-09-09T12:11:36;99907.35;;;23.19;61.72
23635;BME280;11994;51.038;16.974;2022-09-09T12:14:02;99917.81;;;23.17;60.76
23635;BME280;11994;51.038;16.974;2022-09-09T12:16:36;99912.44;;;23.11;60.44
23635;BME280;11994;51.038;16.974;2022-09-09T12:19:21;99907.70;;;23.09;59.99
23635;BME280;11994;51.038;16.974;2022-09-09T12:22:32;99904.42;;;23.17;60.49
23635;BME280;11994;51.038;16.974;2022-09-09T12:27:34;99895.91;;;23.39;61.07
23635;BME280;11994;51.038;16.974;2022-09-09T12:30:22;99892.96;;;23.42;61.27
23635;BME280;11994;51.038;16.974;2022-09-09T12:35:38;99901.47;;;23.64;59.02
23635;BME280;11994;51.038;16.974;2022-09-09T12:38:09;99906.09;;;23.67;59.86
23635;BME280;11994;51.038;16.974;2022-09-09T12:40:36;99896.20;;;23.73;60.45
23635;BME280;11994;51.038;16.974;2022-09-09T12:43:19;99897.55;;;23.73;60.43
23635;BME280;11994;51.038;16.974;2022-09-09T12:45:47;99896.08;;;23.69;60.42
23635;BME280;11994;51.038;16.974;2022-09-09T12:48:18;99909.52;;;23.64;60.71
23635;BME280;11994;51.038;16.974;2022-09-09T12:50:50;99914.01;;;23.63;60.40
23635;BME280;11994;51.038;16.974;2022-09-09T12:53:24;99912.19;;;23.64;59.15
23635;BME280;11994;51.038;16.974;2022-09-09T12:56:06;99906.47;;;23.57;60.00
23635;BME280;11994;51.038;16.974;2022-09-09T12:58:36;99896.84;;;23.55;59.13
23635;BME280;11994;51.038;16.974;2022-09-09T13:01:04;99891.25;;;23.52;58.91
23635;BME280;11994;51.038;16.974;2022-09-09T13:03:33;99893.70;;;23.55;58.04
23635;BME280;11994;51.038;16.974;2022-09-09T13:08:57;99895.61;;;23.70;57.75
23635;BME280;11994;51.038;16.974;2022-09-09T13:13:57;99885.45;;;23.79;58.37
23635;BME280;11994;51.038;16.974;2022-09-09T13:16:29;99883.88;;;23.76;57.52
23635;BME280;11994;51.038;16.974;2022-09-09T13:18:58;99871.73;;;23.72;56.85
23635;BME280;11994;51.038;16.974;2022-09-09T13:21:37;99874.65;;;23.75;54.84
23635;BME280;11994;51.038;16.974;2022-09-09T13:24:06;99871.94;;;23.80;55.26
23635;BME280;11994;51.038;16.974;2022-09-09T13:26:35;99872.05;;;23.84;53.99
23635;BME280;11994;51.038;16.974;2022-09-09T13:29:18;99875.23;;;23.89;54.30
23635;BME280;11994;51.038;16.974;2022-09-09T13:31:45;99873.51;;;23.88;53.71
23635;BME280;11994;51.038;16.974;2022-09-09T13:37:07;99875.72;;;23.83;54.50
23635;BME280;11994;51.038;16.974;2022-09-09T13:39:39;99865.27;;;23.75;54.48
23635;BME280;11994;51.038;16.974;2022-09-09T13:42:19;99868.78;;;23.75;54.65
23635;BME280;11994;51.038;16.974;2022-09-09T13:44:40;99869.64;;;23.76;54.69
23635;BME280;11994;51.038;16.974;2022-09-09T13:49:46;99858.64;;;23.90;54.31
23635;BME280;11994;51.038;16.974;2022-09-09T13:52:17;99849.37;;;23.94;54.55
23635;BME280;11994;51.038;16.974;2022-09-09T13:54:48;99842.80;;;23.92;54.30
23635;BME280;11994;51.038;16.974;2022-09-09T13:57:19;99842.68;;;23.88;54.38
23635;BME280;11994;51.038;16.974;2022-09-09T13:59:46;99844.73;;;23.85;54.28
23635;BME280;11994;51.038;16.974;2022-09-09T14:02:14;99843.16;;;23.82;53.86
23635;BME280;11994;51.038;16.974;2022-09-09T14:04:43;99845.02;;;23.76;54.42
23635;BME280;11994;51.038;16.974;2022-09-09T14:07:12;99846.50;;;23.75;54.45
23635;BME280;11994;51.038;16.974;2022-09-09T14:09:39;99842.48;;;23.75;54.03
23635;BME280;11994;51.038;16.974;2022-09-09T14:12:12;99843.20;;;23.71;53.55
23635;BME280;11994;51.038;16.974;2022-09-09T14:14:36;99845.05;;;23.65;53.67
23635;BME280;11994;51.038;16.974;2022-09-09T14:17:02;99844.96;;;23.61;53.67
23635;BME280;11994;51.038;16.974;2022-09-09T14:19:29;99856.16;;;23.61;53.88
23635;BME280;11994;51.038;16.974;2022-09-09T14:21:57;99855.53;;;23.63;53.81
23635;BME280;11994;51.038;16.974;2022-09-09T14:24:23;99860.89;;;23.68;54.25
23635;BME280;11994;51.038;16.974;2022-09-09T14:26:50;99860.62;;;23.71;54.04
23635;BME280;11994;51.038;16.974;2022-09-09T14:29:18;99864.43;;;23.69;53.83
23635;BME280;11994;51.038;16.974;2022-09-09T14:31:44;99867.70;;;23.67;53.95
23635;BME280;11994;51.038;16.974;2022-09-09T14:34:10;99864.20;;;23.66;54.18
23635;BME280;11994;51.038;16.974;2022-09-09T14:36:37;99858.59;;;23.64;54.08
23635;BME280;11994;51.038;16.974;2022-09-09T14:39:05;99855.05;;;23.63;54.02
23635;BME280;11994;51.038;16.974;2022-09-09T14:41:33;99854.42;;;23.65;54.16
23635;BME280;11994;51.038;16.974;2022-09-09T14:44:03;99850.29;;;23.67;54.13
23635;BME280;11994;51.038;16.974;2022-09-09T14:46:31;99842.84;;;23.70;54.34
23635;BME280;11994;51.038;16.974;2022-09-09T14:49:01;99849.78;;;23.73;54.52
23635;BME280;11994;51.038;16.974;2022-09-09T14:51:30;99840.40;;;23.73;54.13
23635;BME280;11994;51.038;16.974;2022-09-09T14:54:02;99837.24;;;23.73;53.85
23635;BME280;11994;51.038;16.974;2022-09-09T14:56:31;99832.00;;;23.72;54.32
23635;BME280;11994;51.038;16.974;2022-09-09T14:59:01;99835.16;;;23.71;54.57
23635;BME280;11994;51.038;16.974;2022-09-09T15:01:28;99830.42;;;23.69;54.69
23635;BME280;11994;51.038;16.974;2022-09-09T15:03:57;99830.30;;;23.71;55.17
23635;BME280;11994;51.038;16.974;2022-09-09T15:06:30;99832.13;;;23.70;54.73
23635;BME280;11994;51.038;16.974;2022-09-09T15:08:58;99826.67;;;23.66;54.72
23635;BME280;11994;51.038;16.974;2022-09-09T15:11:31;99826.44;;;23.64;55.24
23635;BME280;11994;51.038;16.974;2022-09-09T15:14:05;99818.64;;;23.61;54.65
23635;BME280;11994;51.038;16.974;2022-09-09T15:16:33;99827.55;;;23.56;54.42
23635;BME280;11994;51.038;16.974;2022-09-09T15:19:00;99824.78;;;23.52;55.03
23635;BME280;11994;51.038;16.974;2022-09-09T15:21:34;99826.59;;;23.51;55.07
23635;BME280;11994;51.038;16.974;2022-09-09T15:23:58;99828.56;;;23.49;55.65
23635;BME280;11994;51.038;16.974;2022-09-09T15:26:25;99826.36;;;23.49;55.51
23635;BME280;11994;51.038;16.974;2022-09-09T15:28:53;99821.11;;;23.47;55.45